Bawcomville, Louisiana
Current Conditions -  °F | °C
As of 3:33 AM on Monday 20 Oct 2014 (Local Time) from KMLU Reporting Station
Moderate Fog Moderate Fog  
Wind Chill: 48°   Ceiling: Unl
Heat Index: 48°   Visibility: 0.5mi
Dew Point: 46°   Wind: 0mph
Humidity: 93%   Direction: NA
Pressure: 30.08"   Gusts: NA
Location:  32.3932°N, 92.2204°W
Report Text: KMLU 200833Z AUTO 00000KT 1/2SM FG CLR 09/08 A3008 RMK AO2
Loading
Personal Weather Stations






























Interactive Weather Map
Tropical Storm Tracking
New forecast layout! Learn more

10-Day Weather Forecast

Advertisements
Track Severe Weather on mobile